Time;durP1;ratioP1;P1;durP2;ratioP2;P2;SDS_P1;SDS_P2;PMS_P1;PMS_P2;Temp;Humidity;BMP_temperature;BMP_pressure;BME280_temperature;BME280_humidity;BME280_pressure;Samples;Min_cycle;Max_cycle;Signal;HPM_P1;HPM_P2
2021/11/09 00:01:20;;;;;;;19.60;5.30;;;;;;;6.20;87.39;102505.88;5038373;28;20021;-64
2021/11/09 00:03:49;;;;;;;18.75;6.32;;;;;;;6.21;87.55;102501.53;5056236;28;20454;-64
2021/11/09 00:09:06;;;;;;;16.65;5.90;;;;;;;6.15;88.04;102496.88;5056166;28;20136;-64
2021/11/09 00:11:31;;;;;;;22.33;5.88;;;;;;;6.19;87.38;102496.53;5056070;28;20078;-63
2021/11/09 00:13:57;;;;;;;21.70;6.20;;;;;;;6.23;87.35;102497.13;5055198;28;20422;-66
2021/11/09 00:16:22;;;;;;;20.98;6.53;;;;;;;6.14;87.74;102497.81;5055977;28;20043;-64
2021/11/09 00:18:51;;;;;;;25.35;6.93;;;;;;;6.08;87.80;102492.19;5055976;28;20477;-64
2021/11/09 00:21:18;;;;;;;20.33;6.20;;;;;;;6.14;87.27;102493.50;5056509;28;20091;-64
2021/11/09 00:23:43;;;;;;;23.92;6.45;;;;;;;6.08;87.48;102492.19;5056156;28;20086;-64
2021/11/09 00:26:09;;;;;;;26.45;6.60;;;;;;;5.96;88.44;102492.31;5055778;28;20021;-64
2021/11/09 00:28:35;;;;;;;21.00;6.75;;;;;;;6.03;88.01;102490.91;5055796;28;20147;-64
2021/11/09 00:31:00;;;;;;;20.90;6.82;;;;;;;6.02;87.77;102487.53;5055755;28;20029;-64
2021/11/09 00:33:26;;;;;;;18.70;6.40;;;;;;;5.97;88.09;102491.38;5055618;28;20074;-64
2021/11/09 00:35:51;;;;;;;26.25;6.80;;;;;;;5.85;87.97;102490.50;5037703;28;20028;-65
2021/11/09 00:38:17;;;;;;;25.55;6.97;;;;;;;5.81;88.75;102487.38;5037733;28;20025;-64
2021/11/09 00:40:43;;;;;;;22.05;6.55;;;;;;;5.86;88.30;102489.56;5055553;28;20384;-65
2021/11/09 00:43:11;;;;;;;19.00;6.22;;;;;;;5.82;88.43;102490.75;5055520;28;20020;-64
2021/11/09 00:45:37;;;;;;;31.25;7.10;;;;;;;5.79;88.98;102493.53;5055475;28;20017;-64
2021/11/09 00:48:03;;;;;;;22.70;6.80;;;;;;;5.76;88.65;102489.44;5055396;28;20482;-64
2021/11/09 00:50:29;;;;;;;21.75;6.40;;;;;;;5.84;88.50;102496.56;5037532;28;20531;-64
2021/11/09 00:52:54;;;;;;;20.80;6.70;;;;;;;5.85;88.25;102495.66;5055252;28;20108;-65
2021/11/09 00:55:20;;;;;;;23.48;6.65;;;;;;;5.94;87.53;102507.00;5055203;28;20112;-64
2021/11/09 00:57:47;;;;;;;23.00;7.45;;;;;;;5.87;88.13;102492.03;5037394;28;20037;-64
2021/11/09 01:00:18;;;;;;;22.45;6.75;;;;;;;5.76;88.48;102502.28;5055195;28;20533;-64
2021/11/09 01:02:45;;;;;;;23.73;7.45;;;;;;;5.74;88.58;102496.44;5055155;28;20041;-64
2021/11/09 01:05:12;;;;;;;20.55;6.53;;;;;;;5.82;88.49;102504.38;5055054;28;20029;-64
2021/11/09 01:07:37;;;;;;;19.50;6.82;;;;;;;5.84;88.02;102489.69;5055092;28;20029;-64
2021/11/09 01:10:05;;;;;;;27.77;7.15;;;;;;;5.90;87.76;102506.38;5054859;28;20111;-64
2021/11/09 01:12:32;;;;;;;23.17;6.90;;;;;;;5.87;87.82;102502.31;5054920;28;20025;-64
2021/11/09 01:14:57;;;;;;;26.80;6.65;;;;;;;5.81;88.28;102504.47;5054888;28;20029;-64
2021/11/09 01:17:23;;;;;;;22.48;6.72;;;;;;;5.69;88.68;102507.97;5054838;28;20039;-64
2021/11/09 01:19:48;;;;;;;22.23;7.00;;;;;;;5.75;88.31;102494.69;5036936;28;20029;-64
2021/11/09 01:22:14;;;;;;;21.70;7.07;;;;;;;5.67;88.60;102500.38;5054822;28;20021;-64
2021/11/09 01:24:39;;;;;;;26.65;7.53;;;;;;;5.63;89.07;102504.09;5036668;28;20119;-64
2021/11/09 01:27:06;;;;;;;19.60;7.45;;;;;;;5.55;89.02;102496.13;5054708;28;20031;-65
2021/11/09 01:29:31;;;;;;;25.73;7.70;;;;;;;5.60;88.97;102500.00;5054902;28;20021;-64
2021/11/09 01:31:57;;;;;;;25.95;7.38;;;;;;;5.62;88.68;102494.78;5054557;28;20035;-64
2021/11/09 01:34:22;;;;;;;17.48;6.63;;;;;;;5.70;88.33;102499.31;5054518;28;20025;-64
2021/11/09 01:36:48;;;;;;;22.15;7.60;;;;;;;5.70;88.34;102502.72;5055057;28;20035;-64
2021/11/09 01:39:14;;;;;;;21.13;7.55;;;;;;;5.71;88.36;102508.66;5036589;28;20430;-64
2021/11/09 01:41:39;;;;;;;29.10;7.38;;;;;;;5.73;88.21;102504.25;5054393;28;20497;-64
2021/11/09 01:44:06;;;;;;;27.27;7.00;;;;;;;5.65;88.43;102497.13;5036470;28;20029;-64
2021/11/09 01:46:32;;;;;;;26.90;7.18;;;;;;;5.60;88.84;102500.00;5054329;28;20017;-64
2021/11/09 01:48:57;;;;;;;34.20;7.28;;;;;;;5.71;88.24;102501.78;5036377;28;20021;-64
2021/11/09 01:51:23;;;;;;;22.15;7.30;;;;;;;5.74;88.19;102499.00;5054762;28;20024;-63
2021/11/09 01:53:53;;;;;;;21.55;7.78;;;;;;;5.76;88.18;102501.47;5054012;28;20029;-63
2021/11/09 01:56:21;;;;;;;19.15;6.88;;;;;;;5.73;88.03;102499.94;5054145;28;20021;-64
2021/11/09 01:58:47;;;;;;;20.98;7.22;;;;;;;5.78;88.05;102494.44;5054340;28;20103;-64
2021/11/09 02:01:17;;;;;;;28.27;6.97;;;;;;;5.78;87.54;102495.28;5054054;28;20108;-64
2021/11/09 02:03:46;;;;;;;24.50;7.20;;;;;;;5.64;87.39;102480.09;5054555;28;20037;-64
2021/11/09 02:06:13;;;;;;;23.25;7.00;;;;;;;5.72;87.71;102479.50;5053972;28;20103;-64
2021/11/09 02:08:40;;;;;;;25.52;7.03;;;;;;;5.65;87.69;102482.53;5053793;28;20403;-64
2021/11/09 02:11:06;;;;;;;22.50;7.45;;;;;;;5.56;88.26;102470.41;5053870;28;20021;-64
2021/11/09 02:13:31;;;;;;;30.42;7.20;;;;;;;5.68;88.00;102476.38;5053787;28;20032;-65
2021/11/09 02:15:57;;;;;;;24.98;7.28;;;;;;;5.48;88.05;102471.88;5053769;28;20052;-64
2021/11/09 02:18:24;;;;;;;34.30;8.07;;;;;;;5.55;88.27;102465.38;5053760;28;20031;-64
2021/11/09 02:20:57;;;;;;;25.63;7.82;;;;;;;5.35;88.61;102470.22;5054336;28;20344;-64
2021/11/09 02:23:25;;;;;;;26.13;8.18;;;;;;;5.37;89.43;102478.59;5035943;28;20115;-64
2021/11/09 02:25:51;;;;;;;27.05;8.23;;;;;;;5.42;88.76;102478.28;5054857;28;20040;-63
2021/11/09 02:28:16;;;;;;;27.27;7.35;;;;;;;5.39;89.30;102476.75;5053710;28;20025;-64
2021/11/09 02:30:42;;;;;;;30.17;7.95;;;;;;;5.42;88.74;102473.97;5035690;28;20078;-64
2021/11/09 02:33:07;;;;;;;27.67;7.80;;;;;;;5.28;89.07;102469.00;5053470;28;20032;-63
2021/11/09 02:35:33;;;;;;;29.27;8.55;;;;;;;5.36;89.37;102469.28;5052925;28;20021;-64
2021/11/09 02:37:59;;;;;;;30.02;8.50;;;;;;;5.31;89.36;102458.53;5053472;28;20423;-65
2021/11/09 02:40:24;;;;;;;32.08;8.65;;;;;;;5.37;88.64;102470.09;5053505;28;20087;-64
2021/11/09 02:42:55;;;;;;;26.42;7.93;;;;;;;5.32;89.04;102479.84;5053486;28;20475;-63
2021/11/09 02:45:36;;;;;;;32.80;8.90;;;;;;;5.25;88.78;102478.69;5053468;28;20071;-63
2021/11/09 02:48:05;;;;;;;34.67;8.75;;;;;;;5.29;89.19;102473.19;5053375;28;20017;-63
2021/11/09 02:50:35;;;;;;;32.20;9.63;;;;;;;5.27;89.44;102485.34;5053567;28;20071;-63
2021/11/09 02:53:05;;;;;;;22.70;8.40;;;;;;;5.27;89.15;102462.25;5035299;28;20071;-64
2021/11/09 02:55:38;;;;;;;29.75;8.70;;;;;;;5.40;88.44;102478.38;5053765;28;20025;-63
2021/11/09 03:03:30;;;;;;;29.63;9.32;;;;;;;5.24;88.77;102479.63;5053503;28;20069;-64
2021/11/09 03:06:12;;;;;;;29.48;9.30;;;;;;;5.23;89.12;102465.97;5053250;28;20036;-63
2021/11/09 03:08:42;;;;;;;28.75;9.18;;;;;;;5.25;89.07;102478.69;5053205;28;20049;-63
2021/11/09 03:11:07;;;;;;;31.95;9.10;;;;;;;5.17;89.53;102480.03;5035494;28;20102;-64
2021/11/09 03:13:34;;;;;;;28.25;8.40;;;;;;;5.13;89.72;102480.38;5053077;28;20056;-63
2021/11/09 03:16:05;;;;;;;29.65;8.85;;;;;;;5.06;89.90;102477.41;5053088;28;20069;-64
2021/11/09 03:18:37;;;;;;;29.65;9.13;;;;;;;4.97;90.40;102476.31;5053636;28;20051;-64
2021/11/09 03:45:19;;;;;;;27.30;9.55;;;;;;;5.16;89.06;102498.09;5052915;28;20028;-64
2021/11/09 03:47:48;;;;;;;34.00;9.85;;;;;;;5.15;89.14;102506.69;5037648;28;20029;-64
2021/11/09 03:50:16;;;;;;;31.00;9.02;;;;;;;5.10;89.13;102512.16;5056537;28;20029;-64
2021/11/09 03:52:49;;;;;;;28.83;8.75;;;;;;;5.11;88.70;102497.59;5056433;28;20032;-64
2021/11/09 03:55:23;;;;;;;24.55;9.93;;;;;;;5.18;88.65;102498.81;5056467;28;20067;-64
2021/11/09 03:58:04;;;;;;;31.92;9.20;;;;;;;5.14;88.51;102511.00;5056743;28;20108;-64
2021/11/09 04:00:50;;;;;;;31.33;10.20;;;;;;;5.08;88.83;102501.19;5038504;28;20364;-64
2021/11/09 04:05:51;;;;;;;22.83;8.95;;;;;;;5.01;89.23;102500.00;5056539;28;20037;-64
2021/11/09 04:11:21;;;;;;;32.60;10.10;;;;;;;4.94;89.32;102489.34;5056201;28;20493;-64
2021/11/09 04:14:34;;;;;;;30.90;9.15;;;;;;;4.84;89.40;102490.94;5056065;28;20032;-64
2021/11/09 04:19:44;;;;;;;41.78;9.77;;;;;;;4.77;90.37;102489.72;5034611;28;20430;-64
2021/11/09 04:27:45;;;;;;;;;;;;;;;4.82;89.30;102489.41;5056296;28;20337;-64
2021/11/09 04:42:50;;;;;;;33.35;9.40;;;;;;;4.61;90.33;102489.16;5055650;28;20082;-64
2021/11/09 04:49:27;;;;;;;33.92;8.85;;;;;;;4.72;90.17;102491.78;5055966;28;20031;-64
2021/11/09 05:10:20;;;;;;;25.67;9.40;;;;;;;4.79;88.93;102521.16;5054995;28;20052;-64
2021/11/09 05:12:45;;;;;;;25.08;9.60;;;;;;;4.79;89.57;102515.22;5055165;28;20021;-64
2021/11/09 05:15:10;;;;;;;32.58;9.52;;;;;;;4.67;90.33;102517.72;5037126;28;20459;-64
2021/11/09 05:17:36;;;;;;;30.08;9.48;;;;;;;4.61;90.09;102510.47;5055158;28;20406;-63
2021/11/09 05:20:01;;;;;;;24.20;9.52;;;;;;;4.65;90.42;102511.06;5036943;28;20025;-63
2021/11/09 05:22:27;;;;;;;29.23;9.75;;;;;;;4.65;90.61;102516.19;5054749;28;20078;-64
2021/11/09 05:24:52;;;;;;;35.30;10.77;;;;;;;4.64;90.66;102517.94;5054791;28;20024;-65
2021/11/09 05:27:18;;;;;;;30.05;10.70;;;;;;;4.70;90.29;102514.13;5054728;28;20108;-64
2021/11/09 05:29:45;;;;;;;37.55;10.95;;;;;;;4.62;90.38;102501.84;5055206;28;20029;-64
2021/11/09 05:32:11;;;;;;;30.00;9.73;;;;;;;4.67;90.38;102507.47;5054670;28;20021;-63
2021/11/09 05:34:36;;;;;;;35.03;10.75;;;;;;;4.67;90.36;102514.34;5054458;28;20517;-64
2021/11/09 05:37:02;;;;;;;35.30;10.77;;;;;;;4.66;90.79;102528.88;5055095;28;20100;-64
2021/11/09 05:39:34;;;;;;;25.48;10.15;;;;;;;4.80;90.27;102522.78;5036661;28;20075;-64
2021/11/09 05:41:59;;;;;;;29.58;10.35;;;;;;;4.87;89.73;102531.72;5054698;28;20024;-64
2021/11/09 05:44:25;;;;;;;27.90;10.80;;;;;;;4.69;90.04;102532.97;5054882;28;20078;-64
2021/11/09 05:46:51;;;;;;;28.27;10.38;;;;;;;4.67;90.19;102530.53;5036414;28;20033;-64
2021/11/09 05:49:16;;;;;;;26.63;10.02;;;;;;;4.70;90.84;102516.69;5054823;28;20024;-63
2021/11/09 05:51:41;;;;;;;24.50;10.30;;;;;;;4.62;90.51;102524.88;5036318;28;20494;-63
2021/11/09 05:54:09;;;;;;;26.77;10.80;;;;;;;4.66;90.57;102528.03;5036206;28;20033;-64
2021/11/09 05:56:34;;;;;;;29.17;11.30;;;;;;;4.72;90.73;102525.91;5036233;28;20387;-64
2021/11/09 05:59:00;;;;;;;26.80;10.68;;;;;;;4.69;90.56;102530.41;5036159;28;20029;-64
2021/11/09 06:01:26;;;;;;;35.47;10.90;;;;;;;4.71;90.98;102526.00;5054302;28;20485;-64
2021/11/09 06:03:51;;;;;;;32.83;11.07;;;;;;;4.72;90.55;102530.22;5054319;28;20028;-64
2021/11/09 06:06:17;;;;;;;39.00;11.00;;;;;;;4.68;90.56;102528.78;5053892;28;20443;-65
2021/11/09 06:08:42;;;;;;;23.77;10.80;;;;;;;4.67;90.54;102532.25;5053774;28;20499;-65
2021/11/09 06:11:08;;;;;;;30.60;11.00;;;;;;;4.68;90.45;102533.91;5053381;28;20105;-64
2021/11/09 06:13:34;;;;;;;33.97;10.93;;;;;;;4.70;90.54;102540.56;5035935;28;20025;-64
2021/11/09 06:15:59;;;;;;;32.95;10.77;;;;;;;4.82;90.78;102538.88;5053848;28;20021;-67
2021/11/09 06:18:24;;;;;;;28.83;10.70;;;;;;;4.86;90.67;102537.75;5053709;28;20025;-64
2021/11/09 06:20:50;;;;;;;25.70;10.00;;;;;;;4.80;90.43;102543.28;5054267;28;20110;-65
2021/11/09 06:23:15;;;;;;;35.90;11.48;;;;;;;4.80;90.47;102545.84;5054499;28;20029;-65
2021/11/09 06:25:43;;;;;;;29.58;10.70;;;;;;;4.80;90.44;102550.97;5053656;28;20028;-65
2021/11/09 06:28:09;;;;;;;32.58;11.07;;;;;;;4.85;90.33;102554.03;5053633;28;20024;-64
2021/11/09 06:30:34;;;;;;;31.55;10.70;;;;;;;4.84;90.22;102551.59;5035631;28;20029;-65
2021/11/09 06:33:00;;;;;;;34.17;11.73;;;;;;;4.76;90.42;102557.25;5053471;28;20116;-64
2021/11/09 06:35:26;;;;;;;34.53;11.75;;;;;;;4.78;90.62;102560.53;5053449;28;20107;-64
2021/11/09 06:37:52;;;;;;;29.90;10.57;;;;;;;4.79;90.29;102559.59;5054017;28;20075;-64
2021/11/09 06:40:17;;;;;;;28.50;11.25;;;;;;;4.98;89.82;102569.41;5053401;28;20029;-64
2021/11/09 06:42:43;;;;;;;27.75;10.10;;;;;;;4.99;89.59;102576.16;5053388;28;20028;-64
2021/11/09 06:45:08;;;;;;;24.13;9.50;;;;;;;5.15;89.23;102584.41;5053335;28;20146;-64
2021/11/09 06:47:34;;;;;;;33.83;9.93;;;;;;;5.18;89.06;102583.38;5053866;28;20472;-65
2021/11/09 06:49:59;;;;;;;26.48;9.75;;;;;;;5.26;88.93;102572.56;5053250;28;20029;-64
2021/11/09 06:52:25;;;;;;;30.33;9.88;;;;;;;5.16;89.09;102570.66;5053247;28;20024;-65
2021/11/09 06:54:51;;;;;;;29.67;10.10;;;;;;;5.10;89.11;102570.28;5053172;28;20048;-64
2021/11/09 06:57:16;;;;;;;30.63;10.13;;;;;;;5.18;89.28;102573.13;5053418;28;20029;-64
2021/11/09 06:59:41;;;;;;;38.15;11.00;;;;;;;5.12;89.43;102573.53;5035352;28;20032;-64
2021/11/09 07:02:07;;;;;;;26.80;10.80;;;;;;;5.24;89.73;102584.72;5053011;28;20162;-65
2021/11/09 07:04:33;;;;;;;25.83;10.63;;;;;;;5.18;89.57;102580.81;5053250;28;20093;-65
2021/11/09 07:06:58;;;;;;;36.60;10.82;;;;;;;5.26;89.09;102582.84;5053435;28;20032;-64
2021/11/09 07:09:25;;;;;;;37.03;11.50;;;;;;;5.18;89.01;102580.81;5052888;28;20115;-64
2021/11/09 07:11:50;;;;;;;32.53;10.55;;;;;;;5.18;89.13;102586.78;5053014;28;20467;-64
2021/11/09 07:14:16;;;;;;;34.75;11.38;;;;;;;5.28;89.13;102589.50;5035057;28;20021;-64
2021/11/09 07:16:44;;;;;;;33.20;11.00;;;;;;;5.37;89.01;102598.28;5052913;28;20040;-64
2021/11/09 07:19:12;;;;;;;30.77;10.73;;;;;;;5.53;88.40;102600.59;5053025;28;20029;-64
2021/11/09 07:21:37;;;;;;;35.13;10.32;;;;;;;5.58;88.06;102598.50;5054187;28;20375;-64
2021/11/09 07:24:03;;;;;;;29.10;10.02;;;;;;;5.71;87.97;102611.28;5057189;28;20021;-64
2021/11/09 07:26:28;;;;;;;34.95;9.88;;;;;;;5.89;87.16;102602.25;5056778;28;20064;-64
2021/11/09 07:28:56;;;;;;;37.08;9.98;;;;;;;5.97;87.00;102606.84;5056958;28;20017;-64
2021/11/09 07:31:24;;;;;;;33.95;10.45;;;;;;;5.85;87.20;102606.78;5057377;28;20460;-64
2021/11/09 07:33:50;;;;;;;33.70;9.88;;;;;;;5.96;87.49;102613.75;5038761;28;20104;-64
2021/11/09 07:36:16;;;;;;;31.83;9.98;;;;;;;5.95;87.54;102617.22;5056689;28;20025;-65
2021/11/09 07:38:41;;;;;;;29.38;9.50;;;;;;;6.04;87.19;102618.31;5038741;28;20040;-64
2021/11/09 07:41:06;;;;;;;28.95;10.30;;;;;;;6.17;87.33;102608.78;5038796;28;20021;-64
2021/11/09 07:43:32;;;;;;;27.13;10.13;;;;;;;6.19;86.89;102608.69;5056504;28;20048;-64
2021/11/09 07:45:57;;;;;;;26.50;9.77;;;;;;;6.10;87.11;102630.72;5056705;28;20021;-64
2021/11/09 07:48:22;;;;;;;35.90;9.90;;;;;;;6.09;87.42;102616.22;5056418;28;20028;-64
2021/11/09 07:50:48;;;;;;;36.55;10.00;;;;;;;6.09;87.85;102616.22;5056446;28;20033;-64
2021/11/09 07:53:16;;;;;;;34.30;10.38;;;;;;;6.16;87.56;102620.00;5056500;28;20081;-63
2021/11/09 07:56:04;;;;;;;32.35;9.50;;;;;;;6.27;87.58;102621.75;5056287;28;20029;-64
2021/11/09 07:58:33;;;;;;;29.30;8.73;;;;;;;6.39;86.94;102630.28;5056575;28;20024;-64
2021/11/09 08:01:10;;;;;;;27.20;9.52;;;;;;;6.43;86.96;102622.25;5056522;28;20554;-64
2021/11/09 08:06:24;;;;;;;31.75;9.38;;;;;;;6.84;85.63;102631.16;5056933;28;20040;-65
2021/11/09 08:11:36;;;;;;;28.33;8.93;;;;;;;6.88;85.52;102630.00;5056749;28;20124;-64
2021/11/09 08:14:01;;;;;;;26.30;9.40;;;;;;;7.00;85.41;102630.81;5055953;28;20435;-64
2021/11/09 08:16:27;;;;;;;26.80;9.93;;;;;;;6.86;85.67;102624.16;5056065;28;20024;-64
2021/11/09 08:18:53;;;;;;;30.17;9.15;;;;;;;6.90;85.53;102622.97;5055905;28;20020;-64
2021/11/09 08:21:18;;;;;;;30.67;9.68;;;;;;;6.96;85.64;102624.25;5055907;28;20520;-64
2021/11/09 08:23:48;;;;;;;26.10;9.25;;;;;;;7.09;85.06;102626.72;5055824;28;20029;-64
2021/11/09 08:26:18;;;;;;;33.08;10.30;;;;;;;7.01;85.70;102627.28;5056353;28;20063;-64
2021/11/09 08:28:44;;;;;;;25.80;8.95;;;;;;;7.17;85.03;102625.19;5055719;28;20384;-65
2021/11/09 08:31:11;;;;;;;28.67;9.55;;;;;;;7.35;84.76;102619.53;5055666;28;20068;-65
2021/11/09 08:33:37;;;;;;;29.80;10.25;;;;;;;7.40;84.47;102633.66;5054524;28;20031;-65
2021/11/09 08:36:05;;;;;;;35.70;12.30;;;;;;;7.51;84.17;102634.56;5055589;28;20029;-65
2021/11/09 08:38:33;;;;;;;22.70;8.10;;;;;;;7.64;83.56;102630.91;5056144;28;20051;-65
2021/11/09 08:41:00;;;;;;;30.95;8.68;;;;;;;7.67;83.52;102630.66;5055392;28;20031;-65
2021/11/09 08:43:29;;;;;;;20.70;8.45;;;;;;;7.59;84.35;102630.44;5055392;28;20104;-65
2021/11/09 08:45:58;;;;;;;29.27;8.48;;;;;;;7.63;84.02;102626.72;5037914;28;20031;-65
2021/11/09 08:48:28;;;;;;;27.75;8.45;;;;;;;7.91;82.88;102627.88;5055439;28;20032;-65
2021/11/09 08:50:54;;;;;;;28.73;8.68;;;;;;;8.03;82.57;102625.25;5037338;28;20044;-65
2021/11/09 08:53:29;;;;;;;26.20;7.95;;;;;;;8.33;81.73;102622.72;5055154;28;20060;-64
2021/11/09 09:00:59;;;;;;;32.35;8.93;;;;;;;8.36;81.36;102626.81;5055519;28;20033;-65
2021/11/09 09:06:33;;;;;;;26.48;8.13;;;;;;;8.74;80.34;102630.56;5055852;28;20044;-65
2021/11/09 09:09:01;;;;;;;25.27;7.85;;;;;;;8.67;80.25;102632.84;5055083;28;20060;-65
2021/11/09 09:11:27;;;;;;;25.08;7.78;;;;;;;8.61;81.50;102632.53;5055020;28;20474;-65
2021/11/09 09:13:53;;;;;;;27.92;8.23;;;;;;;8.62;81.35;102629.00;5054799;28;20078;-65
2021/11/09 09:16:18;;;;;;;24.60;8.00;;;;;;;8.76;80.16;102626.09;5036987;28;20021;-65
2021/11/09 09:18:44;;;;;;;24.45;8.45;;;;;;;8.92;79.95;102625.59;5055089;28;20021;-64
2021/11/09 09:21:14;;;;;;;26.50;7.65;;;;;;;8.84;80.62;102633.19;5055317;28;20025;-65
2021/11/09 09:23:45;;;;;;;27.35;7.85;;;;;;;8.81;80.44;102627.34;5055525;28;20028;-65
2021/11/09 09:29:29;;;;;;;26.95;7.68;;;;;;;8.81;80.09;102622.19;5054658;28;20029;-65
2021/11/09 09:31:46;;;;;;;22.63;7.15;;;;;;;9.05;79.90;102633.91;5040507;28;20479;-65
2021/11/09 09:56:51;;;;;;;26.95;7.90;;;;;;;9.36;79.47;102632.09;5054534;28;20364;-65
2021/11/09 09:59:17;;;;;;;25.42;8.20;;;;;;;9.67;78.75;102637.16;5036176;28;20036;-65
2021/11/09 10:01:42;;;;;;;27.55;8.02;;;;;;;9.61;78.63;102630.78;5036187;28;20029;-65
2021/11/09 10:04:27;;;;;;;24.17;7.50;;;;;;;9.47;79.08;102638.91;5036075;28;20024;-65
2021/11/09 10:06:53;;;;;;;31.33;12.23;;;;;;;9.80;78.64;102634.31;5053726;28;20079;-65
2021/11/09 10:09:36;;;;;;;23.77;7.88;;;;;;;9.89;79.03;102629.13;5053489;28;20065;-65
2021/11/09 10:12:22;;;;;;;29.50;8.25;;;;;;;9.87;78.37;102636.22;5036349;28;20032;-65
2021/11/09 10:14:54;;;;;;;26.90;8.30;;;;;;;9.86;78.84;102634.56;5053744;28;20025;-64
2021/11/09 10:17:23;;;;;;;24.73;7.03;;;;;;;9.80;78.30;102624.78;5053730;28;20383;-64
2021/11/09 10:19:49;;;;;;;25.73;7.20;;;;;;;10.00;78.01;102632.53;5054000;28;20082;-64
2021/11/09 10:22:24;;;;;;;27.08;8.48;;;;;;;9.89;78.90;102639.44;5053650;28;20017;-65
2021/11/09 10:24:52;;;;;;;26.85;8.40;;;;;;;9.82;78.53;102622.88;5053580;28;20547;-65
2021/11/09 10:30:45;;;;;;;25.63;8.20;;;;;;;10.04;78.27;102642.44;5053452;28;20040;-65
2021/11/09 10:33:13;;;;;;;18.77;6.93;;;;;;;10.11;77.17;102634.97;5035606;28;20112;-65
2021/11/09 10:35:38;;;;;;;21.75;7.18;;;;;;;10.04;77.34;102632.13;5035542;28;20387;-65
2021/11/09 10:38:04;;;;;;;29.35;7.82;;;;;;;10.13;78.10;102644.19;5035602;28;20017;-65
2021/11/09 10:40:42;;;;;;;25.45;7.10;;;;;;;10.24;77.41;102648.41;5053352;28;20435;-65
2021/11/09 10:43:10;;;;;;;21.80;7.05;;;;;;;10.04;77.74;102636.44;5053902;28;20033;-65
2021/11/09 10:45:38;;;;;;;25.92;6.97;;;;;;;10.00;77.86;102640.28;5053381;28;20040;-65
2021/11/09 10:48:15;;;;;;;23.52;7.53;;;;;;;10.04;77.88;102633.88;5053305;28;20028;-65
2021/11/09 10:50:46;;;;;;;21.10;7.50;;;;;;;10.00;77.84;102633.34;5053327;28;20480;-65
2021/11/09 10:56:25;;;;;;;22.95;7.55;;;;;;;10.29;77.49;102643.66;5052958;28;20024;-65
2021/11/09 11:04:09;;;;;;;27.45;7.43;;;;;;;10.35;77.29;102630.16;5053368;28;20032;-64
2021/11/09 11:06:37;;;;;;;31.43;9.60;;;;;;;10.40;77.48;102637.50;5053421;28;20056;-65
2021/11/09 11:09:14;;;;;;;23.13;7.30;;;;;;;10.29;78.02;102637.66;5052889;28;20549;-67
2021/11/09 11:11:44;;;;;;;29.00;7.75;;;;;;;10.34;77.37;102638.06;5053117;28;20025;-65
2021/11/09 11:14:25;;;;;;;26.25;7.22;;;;;;;10.27;78.02;102630.06;5035002;28;20029;-65
2021/11/09 11:17:08;;;;;;;25.23;7.43;;;;;;;10.21;77.94;102633.16;5053127;28;20038;-65
2021/11/09 11:19:38;;;;;;;27.88;7.78;;;;;;;10.24;78.58;102635.50;5053342;28;20025;-65
2021/11/09 11:22:06;;;;;;;24.65;7.25;;;;;;;10.13;78.24;102628.69;5034938;28;20025;-63
2021/11/09 11:24:32;;;;;;;20.80;6.80;;;;;;;10.31;78.32;102630.59;5052858;28;20467;-65
2021/11/09 11:26:58;;;;;;;22.85;7.18;;;;;;;10.37;78.04;102623.09;5052874;28;20024;-65
2021/11/09 11:29:27;;;;;;;25.20;7.65;;;;;;;10.62;77.52;102626.03;5052828;28;20044;-66
2021/11/09 11:31:54;;;;;;;27.35;8.57;;;;;;;10.58;77.22;102625.47;5035040;28;20024;-66
2021/11/09 11:34:21;;;;;;;20.05;6.93;;;;;;;10.56;77.08;102616.25;5052814;28;20109;-66
2021/11/09 11:36:48;;;;;;;29.10;7.70;;;;;;;10.42;78.38;102614.94;5052793;28;20112;-65
2021/11/09 11:39:15;;;;;;;19.60;7.25;;;;;;;10.54;78.58;102625.91;5052841;28;20495;-66
2021/11/09 11:41:45;;;;;;;24.13;7.35;;;;;;;10.72;77.29;102631.13;5034882;28;20075;-65
2021/11/09 11:44:20;;;;;;;18.42;6.80;;;;;;;10.70;78.02;102631.28;5052834;28;20025;-66
2021/11/09 11:46:48;;;;;;;26.90;7.53;;;;;;;10.43;78.25;102626.88;5053085;28;20025;-65
2021/11/09 11:49:17;;;;;;;22.95;7.10;;;;;;;10.41;78.68;102628.78;5034819;28;20025;-65
2021/11/09 11:52:04;;;;;;;26.25;7.07;;;;;;;10.43;78.99;102626.88;5052751;28;20107;-65
2021/11/09 11:54:51;;;;;;;22.65;7.05;;;;;;;10.51;79.11;102631.38;5052507;28;20101;-64
2021/11/09 11:57:44;;;;;;;20.35;6.90;;;;;;;10.37;78.97;102623.09;5053231;28;20491;-64
2021/11/09 12:00:28;;;;;;;23.85;7.55;;;;;;;10.32;79.94;102619.31;5052702;28;20017;-65
2021/11/09 12:02:55;;;;;;;27.27;6.88;;;;;;;10.51;78.72;102618.44;5052670;28;20044;-65
2021/11/09 12:05:41;;;;;;;22.63;6.97;;;;;;;10.35;79.72;102613.84;5035371;28;20025;-65
2021/11/09 12:08:11;;;;;;;23.00;7.85;;;;;;;10.33;80.24;102608.03;5052579;28;20032;-65
2021/11/09 12:10:48;;;;;;;29.05;7.20;;;;;;;10.31;80.96;102602.97;5056175;28;20551;-65
2021/11/09 12:13:19;;;;;;;23.70;7.15;;;;;;;10.37;80.42;102601.59;5056080;28;20032;-65
2021/11/09 12:16:02;;;;;;;19.92;7.65;;;;;;;10.57;80.04;102598.00;5056096;28;20036;-65
2021/11/09 12:18:28;;;;;;;26.30;7.68;;;;;;;10.69;79.45;102597.81;5056152;28;20395;-65
2021/11/09 12:20:54;;;;;;;27.10;7.78;;;;;;;10.39;80.45;102590.19;5056146;28;20036;-65
2021/11/09 12:23:21;;;;;;;24.58;7.78;;;;;;;10.08;81.27;102562.91;5056088;28;20021;-65
2021/11/09 12:25:48;;;;;;;22.67;6.88;;;;;;;10.25;81.89;102579.44;5037915;28;20123;-65
2021/11/09 12:28:16;;;;;;;22.33;7.50;;;;;;;10.40;80.75;102585.81;5055757;28;20028;-64
2021/11/09 12:30:49;;;;;;;25.85;7.10;;;;;;;10.43;81.08;102574.38;5055659;28;20033;-65
2021/11/09 12:33:15;;;;;;;26.67;7.30;;;;;;;10.23;81.30;102558.91;5056120;28;20079;-66
2021/11/09 12:36:06;;;;;;;25.80;8.15;;;;;;;10.25;81.70;102577.69;5037667;28;20025;-65
2021/11/09 12:38:38;;;;;;;23.40;7.35;;;;;;;10.35;81.51;102580.25;5054794;28;20036;-65
2021/11/09 12:41:14;;;;;;;25.08;7.75;;;;;;;10.48;81.05;102574.78;5037606;28;20025;-64
2021/11/09 12:47:09;;;;;;;27.45;7.43;;;;;;;10.73;79.90;102571.53;5055731;28;20044;-65
2021/11/09 12:49:38;;;;;;;24.15;6.63;;;;;;;10.81;79.71;102563.84;5037555;28;20017;-65
2021/11/09 12:52:04;;;;;;;26.65;7.70;;;;;;;10.86;79.80;102567.78;5055373;28;20021;-65
2021/11/09 12:54:29;;;;;;;21.88;7.40;;;;;;;10.75;79.92;102564.44;5055530;28;20074;-65
2021/11/09 12:57:04;;;;;;;25.45;7.10;;;;;;;11.08;79.13;102564.81;5037409;28;20021;-64
2021/11/09 12:59:54;;;;;;;21.20;6.95;;;;;;;11.14;78.74;102564.22;5055292;28;20028;-65
2021/11/09 13:02:39;;;;;;;23.02;7.63;;;;;;;11.01;79.37;102553.41;5055156;28;20028;-65
2021/11/09 13:05:14;;;;;;;21.20;6.95;;;;;;;11.06;79.00;102548.59;5055147;28;20024;-66
2021/11/09 13:07:42;;;;;;;24.10;7.15;;;;;;;11.13;78.25;102554.78;5055377;28;20355;-66
2021/11/09 13:10:25;;;;;;;23.27;6.82;;;;;;;11.27;78.55;102554.28;5055002;28;20044;-66
2021/11/09 13:12:52;;;;;;;25.73;7.07;;;;;;;10.98;78.86;102551.09;5054943;28;20107;-66
2021/11/09 13:15:20;;;;;;;17.88;6.60;;;;;;;11.00;79.29;102552.59;5054837;28;20024;-66
2021/11/09 13:17:49;;;;;;;19.55;6.70;;;;;;;11.00;79.33;102564.72;5054857;28;20029;-65
2021/11/09 13:23:00;;;;;;;19.73;7.20;;;;;;;11.21;78.45;102551.50;5055313;28;20111;-66
2021/11/09 13:25:59;;;;;;;20.23;6.57;;;;;;;11.18;78.66;102560.34;5055000;28;20352;-65
2021/11/09 13:28:28;;;;;;;18.83;6.15;;;;;;;11.19;78.82;102546.47;5054929;28;20116;-66
2021/11/09 13:30:58;;;;;;;20.17;6.68;;;;;;;11.26;78.92;102546.69;5054647;28;20473;-65
2021/11/09 13:33:25;;;;;;;20.65;6.60;;;;;;;11.19;78.71;102540.47;5054585;28;20047;-66
2021/11/09 13:35:53;;;;;;;18.77;6.28;;;;;;;11.28;78.37;102537.00;5054632;28;20036;-66
2021/11/09 13:38:25;;;;;;;19.83;6.50;;;;;;;11.20;79.22;102548.09;5036460;28;20032;-66
2021/11/09 13:40:52;;;;;;;14.82;6.97;;;;;;;11.17;78.80;102545.78;5054729;28;20028;-65
2021/11/09 13:43:23;;;;;;;18.40;6.18;;;;;;;11.38;78.24;102536.91;5054448;28;20017;-66
2021/11/09 13:45:57;;;;;;;21.90;6.35;;;;;;;11.37;78.26;102549.06;5054589;28;20017;-66
2021/11/09 13:48:22;;;;;;;17.17;6.22;;;;;;;11.28;78.53;102548.16;5054486;28;20033;-65